createdAt,value
2022-07-30T00:01:37.210Z,0.40
2022-07-30T00:04:03.846Z,0.40
2022-07-30T00:06:30.311Z,0.50
2022-07-30T00:08:56.753Z,0.40
2022-07-30T00:11:27.334Z,0.28
2022-07-30T00:13:54.326Z,0.28
2022-07-30T00:16:20.798Z,0.30
2022-07-30T00:18:47.436Z,0.30
2022-07-30T00:21:34.608Z,0.30
2022-07-30T00:24:02.492Z,0.40
2022-07-30T00:26:29.083Z,0.30
2022-07-30T00:28:55.499Z,0.20
2022-07-30T00:31:21.982Z,0.30
2022-07-30T00:33:48.411Z,0.32
2022-07-30T00:36:14.828Z,0.30
2022-07-30T00:38:41.263Z,0.30
2022-07-30T00:41:07.768Z,0.40
2022-07-30T00:43:34.269Z,0.43
2022-07-30T00:46:00.824Z,0.30
2022-07-30T00:48:27.259Z,0.30
2022-07-30T00:50:53.644Z,0.20
2022-07-30T00:53:20.280Z,0.40
2022-07-30T00:55:46.726Z,0.20
2022-07-30T00:58:13.155Z,0.20
2022-07-30T01:00:39.663Z,0.20
2022-07-30T01:03:06.882Z,0.30
2022-07-30T01:05:33.273Z,0.30
2022-07-30T01:07:59.698Z,0.30
2022-07-30T01:10:26.039Z,0.40
2022-07-30T01:12:55.420Z,0.40
2022-07-30T01:15:21.872Z,0.30
2022-07-30T01:17:52.903Z,0.20
2022-07-30T01:20:26.198Z,0.30
2022-07-30T01:22:52.578Z,0.20
2022-07-30T01:25:30.587Z,0.30
2022-07-30T01:27:59.538Z,0.40
2022-07-30T01:30:27.706Z,0.30
2022-07-30T01:32:54.843Z,0.30
2022-07-30T01:35:22.370Z,0.40
2022-07-30T01:37:49.380Z,0.50
2022-07-30T01:40:15.934Z,0.73
2022-07-30T01:42:43.260Z,0.57
2022-07-30T01:45:11.218Z,0.50
2022-07-30T01:47:38.773Z,0.65
2022-07-30T01:50:06.457Z,0.73
2022-07-30T01:52:37.747Z,0.70
2022-07-30T01:55:05.096Z,0.90
2022-07-30T01:57:41.931Z,0.60
2022-07-30T02:00:10.137Z,0.60
2022-07-30T02:02:36.651Z,0.57
2022-07-30T02:05:03.687Z,0.60
2022-07-30T02:07:36.700Z,0.50
2022-07-30T02:10:10.780Z,0.50
2022-07-30T02:12:39.344Z,0.70
2022-07-30T02:15:17.591Z,0.30
2022-07-30T02:17:47.481Z,0.38
2022-07-30T02:20:14.427Z,0.47
2022-07-30T02:22:43.777Z,0.70
2022-07-30T02:25:10.763Z,0.40
2022-07-30T02:27:38.858Z,0.52
2022-07-30T02:30:05.830Z,0.80
2022-07-30T02:32:35.147Z,0.63
2022-07-30T02:35:05.300Z,0.65
2022-07-30T02:37:43.095Z,0.80
2022-07-30T02:40:11.167Z,0.50
2022-07-30T02:42:38.535Z,0.55
2022-07-30T02:45:05.858Z,0.45
2022-07-30T02:47:32.446Z,0.40
2022-07-30T02:49:59.775Z,0.43
2022-07-30T02:52:27.290Z,0.43
2022-07-30T02:54:56.372Z,0.20
2022-07-30T02:57:23.170Z,0.30
2022-07-30T02:59:50.675Z,0.20
2022-07-30T03:02:17.309Z,0.30
2022-07-30T03:04:56.075Z,0.22
2022-07-30T03:07:23.131Z,0.20
2022-07-30T03:09:51.378Z,0.30
2022-07-30T03:12:19.185Z,0.20
2022-07-30T03:14:45.722Z,0.32
2022-07-30T03:17:13.845Z,0.30
2022-07-30T03:19:40.394Z,0.22
2022-07-30T03:22:07.624Z,0.20
2022-07-30T03:24:34.473Z,0.20
2022-07-30T03:27:03.864Z,0.20
2022-07-30T03:29:30.991Z,0.30
2022-07-30T03:31:58.028Z,0.20
2022-07-30T03:34:27.160Z,0.22
2022-07-30T03:36:55.613Z,0.20
2022-07-30T03:39:22.711Z,0.35
2022-07-30T03:41:49.562Z,0.40
2022-07-30T03:44:16.008Z,0.35
2022-07-30T03:46:43.131Z,0.30
2022-07-30T03:49:09.896Z,0.20
2022-07-30T03:51:38.194Z,0.40
2022-07-30T03:54:13.157Z,0.30
2022-07-30T03:56:40.435Z,0.50
2022-07-30T03:59:06.958Z,0.50
2022-07-30T04:01:33.539Z,0.50
2022-07-30T04:04:07.292Z,0.60
2022-07-30T04:06:39.460Z,0.52
2022-07-30T04:09:07.301Z,0.50
2022-07-30T04:11:41.495Z,0.50
2022-07-30T04:14:08.424Z,0.65
2022-07-30T04:16:40.895Z,0.57
2022-07-30T04:19:12.505Z,0.68
2022-07-30T04:21:40.349Z,0.60
2022-07-30T04:24:08.036Z,0.50
2022-07-30T04:26:35.960Z,0.30
2022-07-30T04:29:04.308Z,0.70
2022-07-30T04:31:38.449Z,0.63
2022-07-30T04:34:07.776Z,0.80
2022-07-30T04:36:34.620Z,0.50
2022-07-30T04:39:01.189Z,0.98
2022-07-30T04:41:27.683Z,0.70
2022-07-30T04:43:54.124Z,0.50
2022-07-30T04:46:20.518Z,0.40
2022-07-30T04:48:51.368Z,0.40
2022-07-30T04:51:26.460Z,0.40
2022-07-30T04:53:53.688Z,0.30
2022-07-30T04:56:20.883Z,0.30
2022-07-30T04:58:47.282Z,0.40
2022-07-30T05:01:17.455Z,0.30
2022-07-30T05:03:44.894Z,0.30
2022-07-30T05:06:12.246Z,0.30
2022-07-30T05:08:39.768Z,0.30
2022-07-30T05:11:06.166Z,0.30
2022-07-30T05:13:38.086Z,0.30
2022-07-30T05:16:05.218Z,0.20
2022-07-30T05:18:31.628Z,0.30
2022-07-30T05:20:58.026Z,0.50
2022-07-30T05:23:24.534Z,0.50
2022-07-30T05:25:50.925Z,0.40
2022-07-30T05:28:17.343Z,0.45
2022-07-30T05:30:44.581Z,0.50
2022-07-30T05:33:15.419Z,0.68
2022-07-30T05:35:42.376Z,0.50
2022-07-30T05:38:08.800Z,0.70
2022-07-30T05:40:35.232Z,0.80
2022-07-30T05:43:01.623Z,0.57
2022-07-30T05:45:28.037Z,0.52
2022-07-30T05:47:54.412Z,0.52
2022-07-30T05:50:20.920Z,0.68
2022-07-30T05:52:47.429Z,0.75
2022-07-30T05:55:13.856Z,0.73
2022-07-30T05:57:42.087Z,1.15
2022-07-30T06:00:10.738Z,0.77
2022-07-30T06:02:37.518Z,0.50
2022-07-30T06:05:04.088Z,0.70
2022-07-30T06:07:30.525Z,1.00
2022-07-30T06:10:03.010Z,0.85
2022-07-30T06:12:29.428Z,1.20
2022-07-30T06:14:56.153Z,1.30
2022-07-30T06:17:22.514Z,0.80
2022-07-30T06:19:49.102Z,1.33
2022-07-30T06:22:15.456Z,1.10
2022-07-30T06:24:42.086Z,0.90
2022-07-30T06:27:08.545Z,0.77
2022-07-30T06:29:34.994Z,0.95
2022-07-30T06:32:01.380Z,0.60
2022-07-30T06:34:27.741Z,0.60
2022-07-30T06:36:54.197Z,0.70
2022-07-30T06:39:55.997Z,0.70
2022-07-30T06:42:07.384Z,0.30
2022-07-30T06:44:33.742Z,0.88
2022-07-30T06:47:04.073Z,0.80
2022-07-30T06:49:34.362Z,0.65
2022-07-30T06:52:01.163Z,0.70
2022-07-30T06:54:27.590Z,0.95
2022-07-30T06:56:54.260Z,0.70
2022-07-30T06:59:20.796Z,0.60
2022-07-30T07:01:47.191Z,0.70
2022-07-30T07:04:13.664Z,0.85
2022-07-30T07:06:40.078Z,0.50
2022-07-30T07:09:06.523Z,0.50
2022-07-30T07:11:32.880Z,0.63
2022-07-30T07:14:04.025Z,0.50
2022-07-30T07:16:31.047Z,0.47
2022-07-30T07:18:57.576Z,0.40
2022-07-30T07:21:23.968Z,1.40
2022-07-30T07:23:50.444Z,0.70
2022-07-30T07:26:16.970Z,0.90
2022-07-30T07:28:43.416Z,1.05
2022-07-30T07:31:10.731Z,1.13
2022-07-30T07:33:37.467Z,0.80
2022-07-30T07:36:04.059Z,0.45
2022-07-30T07:38:30.429Z,0.55
2022-07-30T07:40:56.903Z,0.75
2022-07-30T07:43:25.222Z,1.10
2022-07-30T07:45:51.622Z,1.05
2022-07-30T07:48:18.972Z,0.50
2022-07-30T07:50:45.495Z,1.80
2022-07-30T07:53:12.841Z,1.27
2022-07-30T07:55:39.579Z,1.10
2022-07-30T07:58:06.083Z,0.70
2022-07-30T08:00:32.485Z,1.10
2022-07-30T08:02:59.007Z,0.75
2022-07-30T08:05:25.439Z,0.60
2022-07-30T08:08:11.850Z,1.00
2022-07-30T08:10:38.413Z,1.10
2022-07-30T08:13:05.266Z,0.70
2022-07-30T08:15:31.775Z,0.65
2022-07-30T08:17:58.278Z,0.70
2022-07-30T08:20:24.988Z,0.82
2022-07-30T08:22:51.716Z,0.68
2022-07-30T08:25:22.271Z,0.70
2022-07-30T08:27:50.733Z,1.10
2022-07-30T08:30:19.302Z,1.15
2022-07-30T08:32:45.624Z,1.05
2022-07-30T08:35:12.078Z,0.98
2022-07-30T08:37:40.967Z,0.90
2022-07-30T08:40:08.091Z,1.08
2022-07-30T08:42:35.169Z,0.90
2022-07-30T08:45:01.653Z,1.33
2022-07-30T08:47:30.959Z,1.23
2022-07-30T08:50:01.571Z,0.55
2022-07-30T08:52:28.344Z,1.03
2022-07-30T08:54:55.407Z,1.23
2022-07-30T08:57:21.797Z,1.00
2022-07-30T08:59:59.552Z,0.90
2022-07-30T09:02:29.433Z,0.95
2022-07-30T09:04:56.289Z,0.68
2022-07-30T09:07:22.993Z,0.75
2022-07-30T09:09:49.408Z,0.90
2022-07-30T09:12:34.843Z,0.47
2022-07-30T09:15:07.452Z,0.35
2022-07-30T09:17:45.845Z,0.47
2022-07-30T09:20:12.313Z,0.60
2022-07-30T09:22:46.160Z,0.80
2022-07-30T09:25:12.654Z,1.25
2022-07-30T09:27:49.533Z,1.05
2022-07-30T09:30:16.874Z,0.90
2022-07-30T09:32:54.357Z,1.27
2022-07-30T09:35:20.866Z,0.60
2022-07-30T09:37:47.775Z,1.23
2022-07-30T09:40:15.831Z,1.88
2022-07-30T09:42:42.566Z,0.90
2022-07-30T09:45:12.587Z,0.60
2022-07-30T09:47:45.007Z,1.08
2022-07-30T09:50:13.498Z,0.50
2022-07-30T09:53:06.183Z,1.15
2022-07-30T09:55:34.202Z,0.60
2022-07-30T09:58:04.490Z,0.70
2022-07-30T10:00:32.673Z,0.80
2022-07-30T10:03:00.605Z,0.80
2022-07-30T10:05:38.845Z,0.80
2022-07-30T10:08:16.408Z,0.70
2022-07-30T10:10:47.079Z,0.60
2022-07-30T10:13:20.470Z,0.40
2022-07-30T10:15:49.469Z,0.50
2022-07-30T10:18:16.167Z,0.63
2022-07-30T10:20:44.724Z,0.90
2022-07-30T10:23:15.784Z,0.82
2022-07-30T10:25:49.187Z,1.40
2022-07-30T10:28:21.578Z,1.02
2022-07-30T10:30:52.419Z,0.80
2022-07-30T10:33:36.619Z,0.88
2022-07-30T10:36:09.067Z,1.00
2022-07-30T10:38:39.397Z,1.00
2022-07-30T10:41:10.540Z,0.90
2022-07-30T10:43:36.892Z,0.70
2022-07-30T10:46:20.161Z,0.40
2022-07-30T10:48:49.296Z,0.30
2022-07-30T10:51:18.606Z,0.30
2022-07-30T10:53:52.117Z,0.70
2022-07-30T10:56:25.598Z,1.27
2022-07-30T10:59:08.700Z,1.10
2022-07-30T11:02:04.311Z,1.00
2022-07-30T11:04:31.167Z,0.98
2022-07-30T11:07:17.390Z,0.70
2022-07-30T11:09:44.054Z,0.60
2022-07-30T11:12:36.153Z,0.60
2022-07-30T11:15:07.393Z,0.80
2022-07-30T11:17:59.124Z,0.50
2022-07-30T11:20:25.985Z,0.90
2022-07-30T11:22:53.551Z,1.30
2022-07-30T11:25:22.823Z,1.00
2022-07-30T11:27:50.394Z,0.77
2022-07-30T11:30:16.959Z,0.80
2022-07-30T11:32:44.650Z,0.80
2022-07-30T11:35:15.146Z,0.50
2022-07-30T11:38:00.896Z,0.40
2022-07-30T11:40:32.614Z,0.98
2022-07-30T11:43:18.174Z,0.57
2022-07-30T11:45:48.802Z,0.43
2022-07-30T11:48:16.730Z,0.68
2022-07-30T11:50:43.431Z,0.70
2022-07-30T11:53:10.992Z,0.85
2022-07-30T11:55:42.543Z,0.70
2022-07-30T11:58:10.580Z,0.90
2022-07-30T12:00:41.148Z,1.40
2022-07-30T12:03:11.502Z,0.57
2022-07-30T12:05:38.202Z,0.60
2022-07-30T12:08:05.425Z,0.63
2022-07-30T12:10:32.009Z,0.50
2022-07-30T12:13:17.200Z,0.80
2022-07-30T12:15:47.303Z,0.47
2022-07-30T12:18:29.482Z,0.55
2022-07-30T12:21:08.461Z,0.60
2022-07-30T12:23:35.223Z,0.80
2022-07-30T12:26:02.026Z,0.77
2022-07-30T12:28:33.041Z,0.90
2022-07-30T12:31:02.439Z,0.75
2022-07-30T12:33:28.772Z,0.75
2022-07-30T12:35:56.383Z,0.75
2022-07-30T12:38:23.570Z,0.80
2022-07-30T12:40:56.015Z,0.43
2022-07-30T12:43:41.281Z,0.77
2022-07-30T12:46:09.754Z,0.80
2022-07-30T12:48:49.697Z,0.98
2022-07-30T12:51:16.291Z,0.73
2022-07-30T12:53:43.482Z,0.43
2022-07-30T12:56:10.727Z,0.40
2022-07-30T12:58:38.019Z,0.60
2022-07-30T13:01:04.473Z,0.80
2022-07-30T13:03:39.327Z,0.50
2022-07-30T13:06:14.860Z,0.40
2022-07-30T13:08:54.809Z,0.50
2022-07-30T13:11:22.325Z,0.50
2022-07-30T13:13:48.984Z,0.30
2022-07-30T13:16:15.690Z,0.40
2022-07-30T13:18:42.189Z,0.47
2022-07-30T13:21:09.293Z,0.40
2022-07-30T13:23:40.164Z,0.40
2022-07-30T13:26:07.236Z,0.40
2022-07-30T13:28:34.660Z,0.40
2022-07-30T13:31:01.353Z,0.30
2022-07-30T13:33:27.775Z,0.50
2022-07-30T13:35:54.122Z,0.50
2022-07-30T13:38:20.554Z,0.40
2022-07-30T13:40:46.903Z,0.40
2022-07-30T13:43:13.273Z,0.50
2022-07-30T13:45:39.775Z,0.20
2022-07-30T13:48:06.280Z,0.40
2022-07-30T13:50:32.779Z,0.28
2022-07-30T13:53:02.361Z,0.30
2022-07-30T13:55:29.361Z,0.22
2022-07-30T13:57:55.996Z,0.45
2022-07-30T14:00:23.041Z,0.32
2022-07-30T14:02:49.437Z,0.40
2022-07-30T14:05:16.165Z,0.40
2022-07-30T14:07:42.672Z,0.30
2022-07-30T14:10:09.376Z,0.57
2022-07-30T14:12:35.759Z,0.40
2022-07-30T14:15:02.230Z,0.50
2022-07-30T14:17:28.733Z,0.40
2022-07-30T14:19:55.126Z,0.50
2022-07-30T14:22:21.965Z,0.40
2022-07-30T14:24:48.630Z,0.30
2022-07-30T14:27:15.101Z,0.30
2022-07-30T14:29:41.444Z,0.30
2022-07-30T14:32:07.780Z,0.20
2022-07-30T14:34:34.105Z,0.40
2022-07-30T14:37:01.896Z,0.43
2022-07-30T14:39:28.540Z,0.60
2022-07-30T14:41:56.102Z,0.38
2022-07-30T14:44:22.956Z,0.50
2022-07-30T14:46:51.811Z,0.40
2022-07-30T14:49:19.553Z,0.80
2022-07-30T14:51:46.081Z,0.63
2022-07-30T14:54:12.426Z,0.50
2022-07-30T14:56:38.912Z,0.40
2022-07-30T14:59:05.410Z,0.50
2022-07-30T15:01:31.912Z,0.40
2022-07-30T15:03:58.838Z,0.43
2022-07-30T15:06:25.547Z,0.40
2022-07-30T15:08:52.909Z,0.40
2022-07-30T15:11:21.257Z,0.68
2022-07-30T15:13:50.130Z,0.73
2022-07-30T15:16:16.934Z,0.70
2022-07-30T15:18:43.299Z,0.60
2022-07-30T15:21:09.672Z,0.60
2022-07-30T15:23:36.122Z,0.38
2022-07-30T15:26:02.446Z,0.40
2022-07-30T15:28:28.926Z,0.70
2022-07-30T15:30:55.771Z,0.47
2022-07-30T15:33:22.181Z,0.35
2022-07-30T15:35:48.591Z,0.60
2022-07-30T15:38:15.008Z,0.60
2022-07-30T15:40:43.717Z,1.10
2022-07-30T15:43:10.480Z,0.65
2022-07-30T15:45:50.994Z,0.50
2022-07-30T15:48:26.950Z,0.40
2022-07-30T15:51:03.277Z,0.80
2022-07-30T15:53:31.102Z,0.57
2022-07-30T15:55:58.315Z,1.10
2022-07-30T15:58:24.809Z,1.20
2022-07-30T16:00:51.275Z,0.68
2022-07-30T16:03:18.007Z,0.90
2022-07-30T16:05:52.459Z,0.60
2022-07-30T16:08:19.455Z,0.50
2022-07-30T16:10:46.118Z,1.38
2022-07-30T16:13:12.473Z,0.85
2022-07-30T16:15:38.890Z,0.70
2022-07-30T16:18:06.284Z,0.50
2022-07-30T16:20:32.717Z,0.40
2022-07-30T16:22:59.200Z,0.80
2022-07-30T16:25:25.667Z,0.60
2022-07-30T16:27:52.232Z,0.63
2022-07-30T16:30:18.843Z,0.55
2022-07-30T16:32:45.264Z,0.68
2022-07-30T16:35:13.266Z,0.75
2022-07-30T16:37:40.158Z,0.70
2022-07-30T16:40:06.761Z,1.02
2022-07-30T16:42:33.090Z,1.10
2022-07-30T16:44:59.482Z,0.80
2022-07-30T16:47:25.919Z,1.05
2022-07-30T16:49:52.285Z,1.38
2022-07-30T16:52:18.832Z,1.00
2022-07-30T16:54:45.190Z,1.00
2022-07-30T16:57:11.523Z,0.80
2022-07-30T16:59:38.102Z,0.50
2022-07-30T17:02:04.726Z,0.60
2022-07-30T17:04:31.343Z,0.50
2022-07-30T17:06:57.743Z,0.50
2022-07-30T17:09:24.107Z,0.47
2022-07-30T17:11:52.145Z,0.40
2022-07-30T17:14:19.033Z,0.35
2022-07-30T17:16:45.419Z,0.30
2022-07-30T17:19:11.759Z,0.20
2022-07-30T17:21:38.328Z,0.50
2022-07-30T17:24:10.965Z,0.70
2022-07-30T17:26:40.476Z,0.38
2022-07-30T17:29:09.683Z,0.40
2022-07-30T17:31:42.226Z,0.50
2022-07-30T17:34:13.532Z,0.50
2022-07-30T17:36:41.383Z,0.40
2022-07-30T17:39:10.779Z,0.30
2022-07-30T17:42:02.716Z,0.40
2022-07-30T17:44:29.635Z,0.30
2022-07-30T17:46:55.988Z,0.30
2022-07-30T17:49:22.466Z,0.30
2022-07-30T17:51:49.058Z,0.17
2022-07-30T17:54:15.488Z,0.10
2022-07-30T17:56:41.981Z,0.30
2022-07-30T17:59:13.507Z,0.30
2022-07-30T18:01:40.223Z,0.28
2022-07-30T18:04:06.671Z,0.20
2022-07-30T18:06:33.086Z,0.30
2022-07-30T18:08:59.430Z,0.30
2022-07-30T18:11:25.913Z,0.20
2022-07-30T18:13:52.378Z,0.20
2022-07-30T18:16:18.752Z,0.40
2022-07-30T18:18:45.106Z,0.30
2022-07-30T18:21:11.500Z,0.40
2022-07-30T18:23:37.863Z,0.20
2022-07-30T18:26:04.213Z,0.20
2022-07-30T18:28:30.768Z,0.28
2022-07-30T18:30:57.156Z,0.55
2022-07-30T18:33:23.553Z,0.30
2022-07-30T18:35:50.081Z,0.30
2022-07-30T18:38:16.506Z,0.20
2022-07-30T18:40:43.607Z,0.30
2022-07-30T18:43:09.988Z,0.20
2022-07-30T18:45:37.211Z,0.20
2022-07-30T18:48:03.839Z,0.20
2022-07-30T18:50:30.748Z,0.20
2022-07-30T18:52:57.082Z,0.10
2022-07-30T18:55:23.403Z,0.20
2022-07-30T18:57:52.333Z,0.20
2022-07-30T19:00:34.775Z,0.20
2022-07-30T19:03:01.690Z,0.25
2022-07-30T19:05:28.097Z,0.20
2022-07-30T19:07:58.486Z,0.10
2022-07-30T19:10:26.356Z,0.10
2022-07-30T19:12:53.309Z,0.10
2022-07-30T19:15:19.694Z,0.10
2022-07-30T19:17:47.071Z,0.20
2022-07-30T19:20:13.436Z,0.28
2022-07-30T19:22:40.492Z,0.40
2022-07-30T19:25:07.183Z,0.32
2022-07-30T19:27:33.955Z,0.40
2022-07-30T19:30:00.554Z,0.30
2022-07-30T19:32:27.004Z,0.20
2022-07-30T19:34:53.983Z,0.30
2022-07-30T19:37:20.451Z,0.30
2022-07-30T19:40:05.206Z,0.20
2022-07-30T19:42:33.853Z,0.10
2022-07-30T19:45:01.210Z,0.20
2022-07-30T19:47:39.526Z,0.25
2022-07-30T19:50:08.752Z,0.20
2022-07-30T19:52:35.928Z,0.40
2022-07-30T19:55:02.895Z,0.20
2022-07-30T19:57:53.317Z,0.20
2022-07-30T20:00:24.879Z,0.10
2022-07-30T20:02:52.122Z,0.10
2022-07-30T20:05:18.509Z,0.10
2022-07-30T20:07:45.664Z,0.10
2022-07-30T20:10:13.076Z,0.10
2022-07-30T20:12:42.167Z,0.00
2022-07-30T20:15:14.644Z,0.20
2022-07-30T20:17:41.552Z,0.20
2022-07-30T20:20:09.592Z,0.30
2022-07-30T20:22:35.976Z,0.20
2022-07-30T20:25:02.682Z,0.25
2022-07-30T20:27:37.092Z,0.30
2022-07-30T20:30:05.197Z,0.20
2022-07-30T20:32:31.532Z,0.22
2022-07-30T20:34:58.409Z,0.30
2022-07-30T20:37:27.320Z,0.40
2022-07-30T20:39:54.824Z,0.32
2022-07-30T20:42:23.598Z,0.40
2022-07-30T20:44:51.388Z,0.30
2022-07-30T20:47:34.892Z,0.35
2022-07-30T20:50:10.007Z,0.20
2022-07-30T20:52:37.459Z,0.20
2022-07-30T20:55:07.116Z,0.30
2022-07-30T20:57:56.767Z,0.30
2022-07-30T21:00:21.314Z,0.20
2022-07-30T21:02:47.754Z,0.20
2022-07-30T21:05:17.918Z,0.30
2022-07-30T21:07:46.456Z,0.28
2022-07-30T21:10:13.294Z,0.28
2022-07-30T21:12:41.276Z,0.32
2022-07-30T21:15:24.192Z,0.22
2022-07-30T21:17:50.988Z,0.20
2022-07-30T21:20:17.382Z,0.20
2022-07-30T21:22:54.606Z,0.35
2022-07-30T21:25:21.450Z,0.10
2022-07-30T21:27:49.981Z,0.20
2022-07-30T21:30:16.760Z,0.10
2022-07-30T21:32:43.506Z,0.20
2022-07-30T21:35:11.851Z,0.22
2022-07-30T21:37:38.270Z,0.10
2022-07-30T21:40:09.843Z,0.10
2022-07-30T21:42:36.246Z,0.13
2022-07-30T21:45:15.186Z,0.17
2022-07-30T21:47:47.726Z,0.00
2022-07-30T21:50:15.932Z,0.10
2022-07-30T21:52:43.079Z,0.10
2022-07-30T21:55:09.790Z,0.00
2022-07-30T21:57:40.162Z,0.10
2022-07-30T22:00:09.765Z,0.05
2022-07-30T22:02:37.065Z,0.10
2022-07-30T22:05:03.518Z,0.10
2022-07-30T22:07:30.529Z,0.10
2022-07-30T22:09:57.219Z,0.03
2022-07-30T22:12:25.897Z,0.10
2022-07-30T22:14:55.446Z,0.10
2022-07-30T22:17:23.797Z,0.08
2022-07-30T22:20:04.410Z,0.10
2022-07-30T22:22:36.363Z,0.10
2022-07-30T22:25:09.412Z,0.00
2022-07-30T22:27:39.852Z,0.10
2022-07-30T22:30:23.639Z,0.10
2022-07-30T22:32:50.216Z,0.00
2022-07-30T22:35:16.723Z,0.05
2022-07-30T22:37:47.153Z,0.00
2022-07-30T22:40:15.145Z,0.00
2022-07-30T22:42:49.884Z,0.15
2022-07-30T22:45:16.693Z,0.10
2022-07-30T22:50:52.028Z,0.15
2022-07-30T22:54:03.270Z,0.10
2022-07-30T22:56:06.269Z,0.17
2022-07-30T22:58:40.568Z,0.20
2022-07-30T23:01:09.261Z,0.15
2022-07-30T23:03:37.440Z,0.10
2022-07-30T23:06:03.854Z,0.10
2022-07-30T23:08:30.974Z,0.17
2022-07-30T23:10:58.038Z,0.10
2022-07-30T23:12:30.470Z,0.10
2022-07-30T23:13:24.381Z,0.20
2022-07-30T23:15:50.806Z,0.20
2022-07-30T23:18:17.189Z,0.20
2022-07-30T23:20:43.590Z,0.20
2022-07-30T23:23:11.496Z,0.50
2022-07-30T23:25:39.033Z,0.20
2022-07-30T23:28:05.767Z,0.20
2022-07-30T23:30:34.023Z,0.20
2022-07-30T23:33:00.836Z,0.20
2022-07-30T23:35:27.165Z,0.10
2022-07-30T23:37:53.520Z,0.10
2022-07-30T23:40:19.925Z,0.20
2022-07-30T23:42:47.410Z,0.10
2022-07-30T23:45:14.031Z,0.10
2022-07-30T23:48:00.417Z,0.20
2022-07-30T23:50:26.833Z,0.20
2022-07-30T23:52:53.181Z,0.10
2022-07-30T23:55:19.541Z,0.20
2022-07-30T23:57:45.884Z,0.20
